Istrana Airport LIPS

Flugplatz Daten

Name: Istrana Airport

Ident: LIPS

Lat: 45,68489838

Long: 12,08290005

Platzhöhe: 137 ft

IataCode:

City: Istrana

Metar

2021/08/05 13:55
LIPS 051355Z 22004KT CAVOK 29/19 Q1006 RMK SCT SCT200 VIS MIN 9999 WIND THR26 20005KT WIND THR08 20002KT BLK BLU

Taf

2020/04/14 06:24
TAF TAF LIPS 140800Z 1406/1418 05010KT CAVOK
Gewünschte Webcam nicht vorhanden? Dann fügen Sie eine hinzu. Sie wird dann so schnell wie möglich freigeschaltet
Url: Title: